createdAt,value
2022-08-14T00:02:01.502Z,16.31
2022-08-14T00:04:34.852Z,16.26
2022-08-14T00:07:10.204Z,16.30
2022-08-14T00:09:56.373Z,16.27
2022-08-14T00:12:33.388Z,16.19
2022-08-14T00:15:37.718Z,16.28
2022-08-14T00:18:30.660Z,16.28
2022-08-14T00:21:03.835Z,16.39
2022-08-14T00:23:30.924Z,16.31
2022-08-14T00:26:05.978Z,16.38
2022-08-14T00:28:36.008Z,16.29
2022-08-14T00:31:05.681Z,16.26
2022-08-14T00:33:50.944Z,16.23
2022-08-14T00:36:48.311Z,16.26
2022-08-14T00:39:14.120Z,16.33
2022-08-14T00:41:42.353Z,16.27
2022-08-14T00:44:09.625Z,16.11
2022-08-14T00:46:41.050Z,15.92
2022-08-14T00:49:11.687Z,16.09
2022-08-14T00:51:44.584Z,16.15
2022-08-14T00:54:21.432Z,16.38
2022-08-14T00:56:54.819Z,16.43
2022-08-14T00:59:26.484Z,16.47
2022-08-14T01:01:58.261Z,16.47
2022-08-14T01:04:51.510Z,16.48
2022-08-14T01:07:19.790Z,16.50
2022-08-14T01:10:07.602Z,16.52
2022-08-14T01:12:40.739Z,16.47
2022-08-14T01:15:09.952Z,16.47
2022-08-14T01:18:00.009Z,16.51
2022-08-14T01:20:46.106Z,16.43
2022-08-14T01:23:16.519Z,16.47
2022-08-14T01:25:48.563Z,16.37
2022-08-14T01:28:34.267Z,16.46
2022-08-14T01:31:02.133Z,16.53
2022-08-14T01:33:30.278Z,16.53
2022-08-14T01:36:03.025Z,16.52
2022-08-14T01:38:34.463Z,16.45
2022-08-14T01:41:15.970Z,16.35
2022-08-14T01:43:56.431Z,16.44
2022-08-14T01:46:25.279Z,16.47
2022-08-14T01:49:02.111Z,16.25
2022-08-14T01:51:30.737Z,16.27
2022-08-14T01:54:00.811Z,16.33
2022-08-14T01:56:37.315Z,16.36
2022-08-14T01:59:09.884Z,16.38
2022-08-14T02:01:41.910Z,16.44
2022-08-14T02:04:40.913Z,16.53
2022-08-14T02:07:15.645Z,16.45
2022-08-14T02:09:42.803Z,16.46
2022-08-14T02:12:09.796Z,16.41
2022-08-14T02:14:59.099Z,16.40
2022-08-14T02:17:29.254Z,16.39
2022-08-14T02:19:57.836Z,16.41
2022-08-14T02:22:32.624Z,16.28
2022-08-14T02:25:00.588Z,16.31
2022-08-14T02:28:23.366Z,16.48
2022-08-14T02:30:16.046Z,16.47
2022-08-14T02:32:43.418Z,16.23
2022-08-14T02:35:18.941Z,16.37
2022-08-14T02:37:49.821Z,16.30
2022-08-14T02:40:32.507Z,16.27
2022-08-14T02:43:02.745Z,16.34
2022-08-14T02:45:38.322Z,16.19
2022-08-14T02:49:03.797Z,16.13
2022-08-14T02:51:00.958Z,16.21
2022-08-14T02:53:29.906Z,16.21
2022-08-14T02:56:02.715Z,16.36
2022-08-14T02:58:31.506Z,16.48
2022-08-14T03:00:59.748Z,16.16
2022-08-14T03:03:31.895Z,16.26
2022-08-14T03:06:03.278Z,16.17
2022-08-14T03:08:32.160Z,16.16
2022-08-14T03:11:01.104Z,16.30
2022-08-14T03:13:29.514Z,16.41
2022-08-14T03:15:57.997Z,16.32
2022-08-14T03:18:31.697Z,16.08
2022-08-14T03:21:07.859Z,16.19
2022-08-14T03:23:38.590Z,16.24
2022-08-14T03:26:12.863Z,16.30
2022-08-14T03:28:48.345Z,16.27
2022-08-14T03:31:15.688Z,16.06
2022-08-14T03:33:43.360Z,16.05
2022-08-14T03:37:51.711Z,15.86
2022-08-14T03:39:13.172Z,15.89
2022-08-14T03:41:43.098Z,15.95
2022-08-14T03:45:25.271Z,15.87
2022-08-14T03:46:56.818Z,15.77
2022-08-14T03:49:28.508Z,15.63
2022-08-14T03:52:00.398Z,15.49
2022-08-14T03:54:28.230Z,15.33
2022-08-14T03:56:55.067Z,15.30
2022-08-14T03:59:21.806Z,15.30
2022-08-14T04:01:53.873Z,15.31
2022-08-14T04:04:28.295Z,15.54
2022-08-14T04:06:55.074Z,15.29
2022-08-14T04:09:26.906Z,15.43
2022-08-14T04:11:54.468Z,15.74
2022-08-14T04:14:23.698Z,15.74
2022-08-14T04:16:50.583Z,15.85
2022-08-14T04:19:19.415Z,15.65
2022-08-14T04:22:03.435Z,15.74
2022-08-14T04:24:37.797Z,15.87
2022-08-14T04:27:09.435Z,15.76
2022-08-14T04:29:42.656Z,15.80
2022-08-14T04:32:57.335Z,15.76
2022-08-14T04:34:58.683Z,15.83
2022-08-14T04:37:45.025Z,15.91
2022-08-14T04:40:32.263Z,16.06
2022-08-14T04:43:18.049Z,16.07
2022-08-14T04:45:45.278Z,16.13
2022-08-14T04:48:38.782Z,16.14
2022-08-14T04:51:10.527Z,16.15
2022-08-14T04:53:43.707Z,16.30
2022-08-14T04:56:31.712Z,16.29
2022-08-14T04:59:09.706Z,16.39
2022-08-14T05:01:39.793Z,16.59
2022-08-14T05:04:08.756Z,16.50
2022-08-14T05:06:42.666Z,16.73
2022-08-14T05:09:14.086Z,16.83
2022-08-14T05:11:42.096Z,16.91
2022-08-14T05:14:16.746Z,16.81
2022-08-14T05:16:59.257Z,16.94
2022-08-14T05:19:29.107Z,17.20
2022-08-14T05:22:17.053Z,17.16
2022-08-14T05:24:49.703Z,17.44
2022-08-14T05:27:22.954Z,17.48
2022-08-14T05:29:53.151Z,17.83
2022-08-14T05:32:20.408Z,18.08
2022-08-14T05:34:47.764Z,18.33
2022-08-14T05:37:15.377Z,18.24
2022-08-14T05:39:42.934Z,18.50
2022-08-14T05:42:21.698Z,18.37
2022-08-14T05:44:54.228Z,18.16
2022-08-14T05:47:22.661Z,18.16
2022-08-14T05:49:50.436Z,18.36
2022-08-14T05:52:18.672Z,18.16
2022-08-14T05:54:53.210Z,18.06
2022-08-14T05:57:20.769Z,18.08
2022-08-14T05:59:48.211Z,18.33
2022-08-14T06:02:14.857Z,18.35
2022-08-14T06:04:48.244Z,18.27
2022-08-14T06:07:16.328Z,18.40
2022-08-14T06:09:43.142Z,18.66
2022-08-14T06:12:55.195Z,18.82
2022-08-14T06:15:08.032Z,18.75
2022-08-14T06:17:59.206Z,18.85
2022-08-14T06:20:28.089Z,18.74
2022-08-14T06:22:56.254Z,18.63
2022-08-14T06:25:23.894Z,18.40
2022-08-14T06:27:52.122Z,18.37
2022-08-14T06:30:23.125Z,19.01
2022-08-14T06:32:52.941Z,18.68
2022-08-14T06:35:20.559Z,19.45
2022-08-14T06:37:51.472Z,19.60
2022-08-14T06:40:28.437Z,19.27
2022-08-14T06:43:07.297Z,19.00
2022-08-14T06:45:37.282Z,18.97
2022-08-14T06:48:23.749Z,18.86
2022-08-14T06:50:52.634Z,18.65
2022-08-14T06:53:19.942Z,18.70
2022-08-14T06:55:49.796Z,18.90
2022-08-14T06:58:29.497Z,19.10
2022-08-14T07:01:18.411Z,18.75
2022-08-14T07:04:06.976Z,18.73
2022-08-14T07:06:47.566Z,18.61
2022-08-14T07:09:19.480Z,18.58
2022-08-14T07:11:49.625Z,18.52
2022-08-14T07:14:16.321Z,18.71
2022-08-14T07:16:43.277Z,18.83
2022-08-14T07:19:11.450Z,18.54
2022-08-14T07:21:39.887Z,18.70
2022-08-14T07:24:09.604Z,18.70
2022-08-14T07:26:48.239Z,18.76
2022-08-14T07:29:15.099Z,18.67
2022-08-14T07:31:44.264Z,18.53
2022-08-14T07:34:11.399Z,18.61
2022-08-14T07:36:38.312Z,18.54
2022-08-14T07:39:27.537Z,18.34
2022-08-14T07:41:54.579Z,18.37
2022-08-14T07:44:32.530Z,18.41
2022-08-14T07:47:03.738Z,18.27
2022-08-14T07:49:32.398Z,18.21
2022-08-14T07:52:00.087Z,18.21
2022-08-14T07:54:30.064Z,17.87
2022-08-14T07:57:06.584Z,18.06
2022-08-14T07:59:43.585Z,18.37
2022-08-14T08:02:19.414Z,18.36
2022-08-14T08:04:59.420Z,17.95
2022-08-14T08:07:30.733Z,18.18
2022-08-14T08:09:59.615Z,18.25
2022-08-14T08:12:30.828Z,18.08
2022-08-14T08:15:12.666Z,18.31
2022-08-14T08:17:42.542Z,18.40
2022-08-14T08:20:27.081Z,18.71
2022-08-14T08:23:00.513Z,18.82
2022-08-14T08:25:39.798Z,18.85
2022-08-14T08:28:28.081Z,19.18
2022-08-14T08:31:01.002Z,19.15
2022-08-14T08:33:37.059Z,19.38
2022-08-14T08:36:12.973Z,19.27
2022-08-14T08:39:18.823Z,19.01
2022-08-14T08:41:43.406Z,19.01
2022-08-14T08:44:17.252Z,19.05
2022-08-14T08:46:58.784Z,18.73
2022-08-14T08:49:48.242Z,19.32
2022-08-14T08:52:25.603Z,19.42
2022-08-14T08:54:58.720Z,19.58
2022-08-14T08:57:25.563Z,19.56
2022-08-14T08:59:54.773Z,18.77
2022-08-14T09:02:22.660Z,19.55
2022-08-14T09:05:03.868Z,19.54
2022-08-14T09:07:31.473Z,19.85
2022-08-14T09:09:59.764Z,19.72
2022-08-14T09:12:31.538Z,20.05
2022-08-14T09:15:12.663Z,20.07
2022-08-14T09:17:41.653Z,20.40
2022-08-14T09:20:11.373Z,20.34
2022-08-14T09:22:47.225Z,20.47
2022-08-14T09:25:15.936Z,20.39
2022-08-14T09:27:42.897Z,20.30
2022-08-14T09:30:31.336Z,20.16
2022-08-14T09:33:12.411Z,20.29
2022-08-14T09:36:01.922Z,20.43
2022-08-14T09:38:36.870Z,20.15
2022-08-14T09:42:21.853Z,20.47
2022-08-14T09:44:33.784Z,20.00
2022-08-14T09:47:00.748Z,20.43
2022-08-14T09:49:40.653Z,20.38
2022-08-14T09:52:23.837Z,20.40
2022-08-14T09:54:54.546Z,20.34
2022-08-14T09:57:27.649Z,20.45
2022-08-14T09:59:55.574Z,20.97
2022-08-14T10:02:34.482Z,21.19
2022-08-14T10:05:10.487Z,21.12
2022-08-14T10:07:53.813Z,21.13
2022-08-14T10:10:40.002Z,20.82
2022-08-14T10:13:22.397Z,20.80
2022-08-14T10:15:51.352Z,20.75
2022-08-14T10:18:21.359Z,21.26
2022-08-14T10:20:58.119Z,21.03
2022-08-14T10:23:27.941Z,21.58
2022-08-14T10:26:06.645Z,21.74
2022-08-14T10:29:17.620Z,22.15
2022-08-14T10:31:44.714Z,22.30
2022-08-14T10:34:18.534Z,22.99
2022-08-14T10:36:49.951Z,23.03
2022-08-14T10:39:21.525Z,22.25
2022-08-14T10:41:53.856Z,23.13
2022-08-14T10:44:24.959Z,22.75
2022-08-14T10:47:39.023Z,23.10
2022-08-14T10:49:58.753Z,22.79
2022-08-14T10:52:43.506Z,23.63
2022-08-14T10:55:16.126Z,23.66
2022-08-14T10:57:54.100Z,23.05
2022-08-14T11:00:35.423Z,22.90
2022-08-14T11:03:11.140Z,23.30
2022-08-14T11:05:43.734Z,23.44
2022-08-14T11:08:13.090Z,23.33
2022-08-14T11:10:57.227Z,23.39
2022-08-14T11:13:30.670Z,23.46
2022-08-14T11:16:02.238Z,23.39
2022-08-14T11:18:35.768Z,23.53
2022-08-14T11:21:06.944Z,23.91
2022-08-14T11:23:43.856Z,23.09
2022-08-14T11:26:13.679Z,24.15
2022-08-14T11:28:47.928Z,24.97
2022-08-14T11:31:20.456Z,24.19
2022-08-14T11:33:55.429Z,23.71
2022-08-14T11:37:02.817Z,23.64
2022-08-14T11:39:33.532Z,24.83
2022-08-14T11:42:07.627Z,24.41
2022-08-14T11:44:53.883Z,24.04
2022-08-14T11:47:24.754Z,24.45
2022-08-14T11:49:51.986Z,24.53
2022-08-14T11:52:19.347Z,24.29
2022-08-14T11:54:57.656Z,24.47
2022-08-14T11:57:25.002Z,24.94
2022-08-14T12:00:01.944Z,25.09
2022-08-14T12:02:38.860Z,25.00
2022-08-14T12:05:42.534Z,23.85
2022-08-14T12:08:11.925Z,25.32
2022-08-14T12:10:43.123Z,25.30
2022-08-14T12:13:19.066Z,25.54
2022-08-14T12:15:57.042Z,24.98
2022-08-14T12:18:35.493Z,25.34
2022-08-14T12:21:15.829Z,25.29
2022-08-14T12:23:50.533Z,24.68
2022-08-14T12:26:39.048Z,25.32
2022-08-14T12:29:09.974Z,25.12
2022-08-14T12:31:44.596Z,25.03
2022-08-14T12:34:20.517Z,24.94
2022-08-14T12:36:49.705Z,25.55
2022-08-14T12:39:22.532Z,25.01
2022-08-14T12:41:57.367Z,25.43
2022-08-14T12:44:50.317Z,24.26
2022-08-14T12:47:17.858Z,24.96
2022-08-14T12:49:52.971Z,24.38
2022-08-14T12:52:54.173Z,23.83
2022-08-14T12:55:32.355Z,23.76
2022-08-14T12:58:28.749Z,24.14
2022-08-14T13:01:16.871Z,24.49
2022-08-14T13:03:48.115Z,24.56
2022-08-14T13:06:20.464Z,24.42
2022-08-14T13:08:53.057Z,24.67
2022-08-14T13:11:24.118Z,24.59
2022-08-14T13:13:57.286Z,24.55
2022-08-14T13:16:33.685Z,25.02
2022-08-14T13:19:09.712Z,25.00
2022-08-14T13:21:58.710Z,25.18
2022-08-14T13:24:27.699Z,25.40
2022-08-14T13:26:58.456Z,25.31
2022-08-14T13:29:29.767Z,25.47
2022-08-14T13:31:58.729Z,25.61
2022-08-14T13:34:27.800Z,25.45
2022-08-14T13:36:59.257Z,25.38
2022-08-14T13:39:36.690Z,25.54
2022-08-14T13:42:13.206Z,25.52
2022-08-14T13:44:42.851Z,25.05
2022-08-14T13:47:11.045Z,25.55
2022-08-14T13:49:40.405Z,25.09
2022-08-14T13:52:51.653Z,24.74
2022-08-14T13:55:18.089Z,24.32
2022-08-14T13:57:49.469Z,25.00
2022-08-14T14:00:21.833Z,25.26
2022-08-14T14:03:00.095Z,25.29
2022-08-14T14:05:52.077Z,25.54
2022-08-14T14:08:18.776Z,25.09
2022-08-14T14:11:02.572Z,24.97
2022-08-14T14:13:31.893Z,25.43
2022-08-14T14:16:02.285Z,25.46
2022-08-14T14:18:35.034Z,25.64
2022-08-14T14:21:03.489Z,25.60
2022-08-14T14:23:32.403Z,24.96
2022-08-14T14:25:59.749Z,24.77
2022-08-14T14:28:31.889Z,25.20
2022-08-14T14:31:06.628Z,25.02
2022-08-14T14:33:47.082Z,25.41
2022-08-14T14:36:21.025Z,25.39
2022-08-14T14:38:56.179Z,25.62
2022-08-14T14:41:26.422Z,24.74
2022-08-14T14:43:55.225Z,25.45
2022-08-14T14:46:36.429Z,25.85
2022-08-14T14:49:07.901Z,25.77
2022-08-14T14:51:35.441Z,25.78
2022-08-14T14:54:02.581Z,25.97
2022-08-14T14:56:51.076Z,26.37
2022-08-14T14:59:18.389Z,26.51
2022-08-14T15:01:50.252Z,26.44
2022-08-14T15:04:20.802Z,25.44
2022-08-14T15:06:49.007Z,25.23
2022-08-14T15:09:17.628Z,25.54
2022-08-14T15:11:47.026Z,25.54
2022-08-14T15:14:54.729Z,25.82
2022-08-14T15:17:02.023Z,26.07
2022-08-14T15:19:28.915Z,25.64
2022-08-14T15:21:55.879Z,25.57
2022-08-14T15:24:24.363Z,25.77
2022-08-14T15:26:57.109Z,25.39
2022-08-14T15:29:25.930Z,25.30
2022-08-14T15:31:53.907Z,25.29
2022-08-14T15:34:45.654Z,25.22
2022-08-14T15:37:11.180Z,25.04
2022-08-14T15:39:41.539Z,25.72
2022-08-14T15:42:14.429Z,25.79
2022-08-14T15:44:57.206Z,26.00
2022-08-14T15:47:28.161Z,26.00
2022-08-14T15:49:59.564Z,24.87
2022-08-14T15:52:34.429Z,25.11
2022-08-14T15:55:13.198Z,25.88
2022-08-14T15:58:02.144Z,25.64
2022-08-14T16:00:52.681Z,25.26
2022-08-14T16:03:27.203Z,26.05
2022-08-14T16:06:10.786Z,26.32
2022-08-14T16:08:39.170Z,26.25
2022-08-14T16:11:08.352Z,25.44
2022-08-14T16:13:43.030Z,25.48
2022-08-14T16:16:49.603Z,25.30
2022-08-14T16:19:10.527Z,25.17
2022-08-14T16:21:39.990Z,25.07
2022-08-14T16:24:28.108Z,24.89
2022-08-14T16:27:00.425Z,24.62
2022-08-14T16:29:29.077Z,24.82
2022-08-14T16:31:58.007Z,25.09
2022-08-14T16:34:45.847Z,24.94
2022-08-14T16:37:16.513Z,25.07
2022-08-14T16:39:44.766Z,24.59
2022-08-14T16:42:39.519Z,24.64
2022-08-14T16:44:59.795Z,24.79
2022-08-14T16:47:32.081Z,24.77
2022-08-14T16:50:08.288Z,24.44
2022-08-14T16:52:54.593Z,24.65
2022-08-14T16:55:22.487Z,24.56
2022-08-14T16:57:58.586Z,24.46
2022-08-14T17:00:44.084Z,24.54
2022-08-14T17:03:12.726Z,24.53
2022-08-14T17:05:43.316Z,24.24
2022-08-14T17:08:41.894Z,24.24
2022-08-14T17:11:10.209Z,24.19
2022-08-14T17:13:57.708Z,24.43
2022-08-14T17:16:38.607Z,24.36
2022-08-14T17:19:13.515Z,23.79
2022-08-14T17:21:42.446Z,23.58
2022-08-14T17:24:56.166Z,23.63
2022-08-14T17:27:03.705Z,23.78
2022-08-14T17:29:33.896Z,23.34
2022-08-14T17:32:27.976Z,23.21
2022-08-14T17:34:57.658Z,23.10
2022-08-14T17:37:29.078Z,22.91
2022-08-14T17:40:17.684Z,22.86
2022-08-14T17:42:51.171Z,22.94
2022-08-14T17:45:41.143Z,22.92
2022-08-14T17:49:10.845Z,22.89
2022-08-14T17:51:17.049Z,22.58
2022-08-14T17:53:52.692Z,22.55
2022-08-14T17:56:20.787Z,22.49
2022-08-14T17:58:49.547Z,22.37
2022-08-14T18:01:23.494Z,22.21
2022-08-14T18:03:53.627Z,22.08
2022-08-14T18:06:38.020Z,22.06
2022-08-14T18:09:24.669Z,22.02
2022-08-14T18:11:58.632Z,21.71
2022-08-14T18:14:32.507Z,21.59
2022-08-14T18:17:01.574Z,21.38
2022-08-14T18:19:31.322Z,21.11
2022-08-14T18:22:05.706Z,20.98
2022-08-14T18:24:52.479Z,20.79
2022-08-14T18:27:23.519Z,20.71
2022-08-14T18:29:56.575Z,20.67
2022-08-14T18:32:27.352Z,20.48
2022-08-14T18:35:11.408Z,20.46
2022-08-14T18:37:41.737Z,20.46
2022-08-14T18:40:17.865Z,20.42
2022-08-14T18:42:45.566Z,20.37
2022-08-14T18:45:28.847Z,20.42
2022-08-14T18:48:28.659Z,20.35
2022-08-14T18:51:12.270Z,20.20
2022-08-14T18:53:59.560Z,20.10
2022-08-14T18:56:59.105Z,20.13
2022-08-14T18:59:35.744Z,20.17
2022-08-14T19:02:30.643Z,20.13
2022-08-14T19:05:02.784Z,19.97
2022-08-14T19:07:34.120Z,19.87
2022-08-14T19:10:05.805Z,19.68
2022-08-14T19:12:55.970Z,19.69
2022-08-14T19:15:28.855Z,19.67
2022-08-14T19:18:10.504Z,19.56
2022-08-14T19:20:55.404Z,19.52
2022-08-14T19:23:43.955Z,19.52
2022-08-14T19:26:36.256Z,19.45
2022-08-14T19:29:37.846Z,19.29
2022-08-14T19:32:36.654Z,19.25
2022-08-14T19:35:16.876Z,19.21
2022-08-14T19:37:48.419Z,19.25
2022-08-14T19:40:33.967Z,19.11
2022-08-14T19:43:06.563Z,19.30
2022-08-14T19:45:34.291Z,19.27
2022-08-14T19:48:02.447Z,19.32
2022-08-14T19:50:38.655Z,19.27
2022-08-14T19:53:12.044Z,19.21
2022-08-14T19:55:56.197Z,19.13
2022-08-14T19:58:30.083Z,19.06
2022-08-14T20:01:01.648Z,18.87
2022-08-14T20:03:59.151Z,18.83
2022-08-14T20:06:35.674Z,18.80
2022-08-14T20:11:04.859Z,18.77
2022-08-14T20:12:02.922Z,18.71
2022-08-14T20:14:36.809Z,18.60
2022-08-14T20:17:06.923Z,18.74
2022-08-14T20:19:37.898Z,18.94
2022-08-14T20:22:35.678Z,18.76
2022-08-14T20:25:11.392Z,18.47
2022-08-14T20:27:40.859Z,18.26
2022-08-14T20:30:35.033Z,18.15
2022-08-14T20:33:10.678Z,18.11
2022-08-14T20:35:46.961Z,18.11
2022-08-14T20:38:29.649Z,18.01
2022-08-14T20:41:10.537Z,17.87
2022-08-14T20:43:59.577Z,17.77
2022-08-14T20:46:38.309Z,17.57
2022-08-14T20:49:12.438Z,17.61
2022-08-14T20:51:58.957Z,17.71
2022-08-14T20:54:34.025Z,18.10
2022-08-14T20:57:21.199Z,17.56
2022-08-14T20:59:53.328Z,17.29
2022-08-14T21:02:38.700Z,17.21
2022-08-14T21:05:21.971Z,17.19
2022-08-14T21:08:08.246Z,17.14
2022-08-14T21:10:47.754Z,17.04
2022-08-14T21:14:08.731Z,17.05
2022-08-14T21:16:33.036Z,17.13
2022-08-14T21:18:58.341Z,17.20
2022-08-14T21:21:41.885Z,17.04
2022-08-14T21:24:38.857Z,16.96
2022-08-14T21:27:09.414Z,16.86
2022-08-14T21:29:41.147Z,16.70
2022-08-14T21:32:34.005Z,16.79
2022-08-14T21:35:08.052Z,16.72
2022-08-14T21:37:43.650Z,16.78
2022-08-14T21:40:39.793Z,16.83
2022-08-14T21:42:59.046Z,16.81
2022-08-14T21:45:25.820Z,16.84
2022-08-14T21:47:52.954Z,16.87
2022-08-14T21:51:00.858Z,16.96
2022-08-14T21:53:07.599Z,17.04
2022-08-14T21:55:34.598Z,17.29
2022-08-14T21:58:52.921Z,17.37
2022-08-14T22:00:49.121Z,17.43
2022-08-14T22:03:23.397Z,17.29
2022-08-14T22:05:53.333Z,17.61
2022-08-14T22:08:26.820Z,17.77
2022-08-14T22:10:55.357Z,17.55
2022-08-14T22:13:26.576Z,17.50
2022-08-14T22:15:59.499Z,17.70
2022-08-14T22:18:26.995Z,17.73
2022-08-14T22:20:56.849Z,17.47
2022-08-14T22:23:26.147Z,17.54
2022-08-14T22:25:53.622Z,17.50
2022-08-14T22:28:25.249Z,17.42
2022-08-14T22:30:55.019Z,17.46
2022-08-14T22:33:31.118Z,17.75
2022-08-14T22:36:00.376Z,17.83
2022-08-14T22:38:36.244Z,17.77
2022-08-14T22:41:27.985Z,17.56
2022-08-14T22:43:55.421Z,17.40
2022-08-14T22:46:23.672Z,17.38
2022-08-14T22:48:51.425Z,17.30
2022-08-14T22:51:21.731Z,17.60
2022-08-14T22:53:52.277Z,17.83
2022-08-14T22:56:22.019Z,17.64
2022-08-14T22:58:54.013Z,17.65
2022-08-14T23:01:56.493Z,17.68
2022-08-14T23:04:35.229Z,17.74
2022-08-14T23:07:22.110Z,17.94
2022-08-14T23:10:32.284Z,17.84
2022-08-14T23:12:48.997Z,17.83
2022-08-14T23:15:23.845Z,17.59
2022-08-14T23:17:51.039Z,17.83
2022-08-14T23:20:20.850Z,17.94
2022-08-14T23:22:53.570Z,18.10
2022-08-14T23:25:57.782Z,18.21
2022-08-14T23:28:34.309Z,18.36
2022-08-14T23:31:08.424Z,18.17
2022-08-14T23:33:45.655Z,18.38
2022-08-14T23:36:32.400Z,18.27
2022-08-14T23:39:10.158Z,18.35
2022-08-14T23:41:45.711Z,18.46
2022-08-14T23:44:14.480Z,18.27
2022-08-14T23:46:41.890Z,18.30
2022-08-14T23:49:12.283Z,18.28
2022-08-14T23:51:39.448Z,18.36
2022-08-14T23:54:48.975Z,18.09
2022-08-14T23:57:00.027Z,18.27
2022-08-14T23:59:30.194Z,18.11
